UAE383D VHHH-OMDB
Flight info
| Callsign | UAE383D |
|---|---|
| Flight time | N/A |
| Altitude | 36000 |
| Route | PECAN V10 SIKOU/K0920S1100 A202 ASSAD/K0917F360 A206 VIN/K0913F380 A206 NALAO/N0493F380 A206 LPB B465 CEA A791 GOGVE/N0490F400 A791 BPL L639 RASKI L301 RAGMA N571 VUSET A454 PASOV B540 MIVEK P574 IMPED |
| Aircraft | A359/H-SDE2E3GHIJ3J4J5LM1ORWXY/LB1D1 |
Departure
| Time | 2026-05-06 02:49 |
|---|---|
| Airport | Hong Kong International Airport (VHHH) |
Arrival
| Time | N/A |
|---|---|
| Airport | Dubai International Airport (OMDB) |
| Time | Latitude | Longitude | Altitude | Speed | Heading |
|---|---|---|---|---|---|
| 2026-05-06 02:11 | 22.31606 | 113.93286 | 38 ft | 0 kts | 109° |
| 2026-05-06 02:34 | 22.31607 | 113.93281 | 38 ft | 4 kts | 107° |
| 2026-05-06 02:34 | 22.31612 | 113.93253 | 38 ft | 4 kts | 104° |
| 2026-05-06 02:34 | 22.31614 | 113.93243 | 38 ft | 0 kts | 106° |
| 2026-05-06 02:35 | 22.31615 | 113.93239 | 38 ft | 3 kts | 109° |
| 2026-05-06 02:35 | 22.31625 | 113.93221 | 37 ft | 3 kts | 130° |
| 2026-05-06 02:36 | 22.31638 | 113.93206 | 38 ft | 3 kts | 149° |
| 2026-05-06 02:36 | 22.31655 | 113.93198 | 36 ft | 3 kts | 161° |
| 2026-05-06 02:36 | 22.31673 | 113.93191 | 38 ft | 3 kts | 161° |
| 2026-05-06 02:36 | 22.31690 | 113.93185 | 37 ft | 3 kts | 161° |
| 2026-05-06 02:37 | 22.31706 | 113.93179 | 38 ft | 0 kts | 162° |
| 2026-05-06 02:39 | 22.31705 | 113.93180 | 38 ft | 1 kts | 161° |
| 2026-05-06 02:39 | 22.31677 | 113.93189 | 37 ft | 6 kts | 166° |
| 2026-05-06 02:39 | 22.31637 | 113.93187 | 38 ft | 6 kts | 197° |
| 2026-05-06 02:39 | 22.31607 | 113.93159 | 38 ft | 6 kts | 232° |
| 2026-05-06 02:40 | 22.31585 | 113.93102 | 38 ft | 11 kts | 252° |
| 2026-05-06 02:40 | 22.31560 | 113.93019 | 38 ft | 12 kts | 251° |
| 2026-05-06 02:40 | 22.31532 | 113.92930 | 38 ft | 13 kts | 251° |
| 2026-05-06 02:40 | 22.31502 | 113.92837 | 38 ft | 14 kts | 251° |
| 2026-05-06 02:41 | 22.31500 | 113.92737 | 38 ft | 14 kts | 291° |
| 2026-05-06 02:41 | 22.31545 | 113.92644 | 38 ft | 14 kts | 296° |
| 2026-05-06 02:41 | 22.31590 | 113.92545 | 38 ft | 15 kts | 296° |
| 2026-05-06 02:41 | 22.31636 | 113.92442 | 38 ft | 16 kts | 295° |
| 2026-05-06 02:42 | 22.31630 | 113.92331 | 37 ft | 15 kts | 250° |
| 2026-05-06 02:42 | 22.31594 | 113.92219 | 38 ft | 16 kts | 251° |
| 2026-05-06 02:42 | 22.31556 | 113.92103 | 38 ft | 17 kts | 250° |
| 2026-05-06 02:42 | 22.31518 | 113.91984 | 38 ft | 17 kts | 251° |
| 2026-05-06 02:43 | 22.31478 | 113.91859 | 38 ft | 18 kts | 251° |
| 2026-05-06 02:43 | 22.31437 | 113.91731 | 38 ft | 18 kts | 251° |
| 2026-05-06 02:43 | 22.31395 | 113.91599 | 38 ft | 19 kts | 251° |
| 2026-05-06 02:43 | 22.31351 | 113.91463 | 38 ft | 19 kts | 251° |
| 2026-05-06 02:44 | 22.31307 | 113.91324 | 38 ft | 20 kts | 251° |
| 2026-05-06 02:44 | 22.31261 | 113.91182 | 38 ft | 20 kts | 251° |
| 2026-05-06 02:44 | 22.31214 | 113.91037 | 38 ft | 21 kts | 251° |
| 2026-05-06 02:44 | 22.31167 | 113.90889 | 38 ft | 21 kts | 251° |
| 2026-05-06 02:45 | 22.31118 | 113.90738 | 38 ft | 21 kts | 251° |
| 2026-05-06 02:45 | 22.31069 | 113.90584 | 36 ft | 22 kts | 251° |
| 2026-05-06 02:45 | 22.31018 | 113.90427 | 38 ft | 22 kts | 250° |
| 2026-05-06 02:45 | 22.30966 | 113.90269 | 38 ft | 22 kts | 250° |
| 2026-05-06 02:46 | 22.30914 | 113.90109 | 38 ft | 23 kts | 250° |
| 2026-05-06 02:46 | 22.30868 | 113.89969 | 38 ft | 11 kts | 250° |
| 2026-05-06 02:46 | 22.30843 | 113.89891 | 38 ft | 8 kts | 253° |
| 2026-05-06 02:46 | 22.30860 | 113.89848 | 38 ft | 6 kts | 321° |
| 2026-05-06 02:47 | 22.30905 | 113.89828 | 38 ft | 8 kts | 340° |
| 2026-05-06 02:47 | 22.30958 | 113.89807 | 38 ft | 9 kts | 340° |
| 2026-05-06 02:47 | 22.31030 | 113.89780 | 36 ft | 12 kts | 341° |
| 2026-05-06 02:47 | 22.31086 | 113.89790 | 36 ft | 5 kts | 48° |
| 2026-05-06 02:48 | 22.31100 | 113.89823 | 36 ft | 5 kts | 69° |
| 2026-05-06 02:48 | 22.31119 | 113.89878 | 36 ft | 15 kts | 69° |
| 2026-05-06 02:48 | 22.31190 | 113.90095 | 37 ft | 55 kts | 71° |
| 2026-05-06 02:48 | 22.31378 | 113.90690 | 37 ft | 110 kts | 71° |
| 2026-05-06 02:49 | 22.31683 | 113.91639 | 39 ft | 156 kts | 70° |
| 2026-05-06 02:49 | 22.32064 | 113.92813 | 479 ft | 160 kts | 71° |
| 2026-05-06 02:49 | 22.32431 | 113.93909 | 1143 ft | 158 kts | 72° |
| 2026-05-06 02:49 | 22.32822 | 113.95058 | 1463 ft | 169 kts | 72° |
| 2026-05-06 02:50 | 22.33226 | 113.96312 | 1762 ft | 184 kts | 73° |
| 2026-05-06 02:50 | 22.33780 | 113.97628 | 2049 ft | 201 kts | 60° |
| 2026-05-06 02:50 | 22.34611 | 113.98903 | 2434 ft | 212 kts | 54° |
| 2026-05-06 02:50 | 22.35493 | 114.00201 | 2972 ft | 216 kts | 56° |
| 2026-05-06 02:51 | 22.36350 | 114.01547 | 3543 ft | 218 kts | 58° |
| 2026-05-06 02:51 | 22.37197 | 114.02921 | 4073 ft | 224 kts | 58° |
| 2026-05-06 02:51 | 22.38086 | 114.04339 | 4548 ft | 231 kts | 57° |
| 2026-05-06 02:51 | 22.38996 | 114.05785 | 5042 ft | 235 kts | 57° |
| 2026-05-06 02:52 | 22.39832 | 114.07294 | 5511 ft | 240 kts | 69° |
| 2026-05-06 02:52 | 22.40058 | 114.09081 | 5904 ft | 246 kts | 103° |
| 2026-05-06 02:52 | 22.39523 | 114.10877 | 6185 ft | 259 kts | 116° |
| 2026-05-06 02:52 | 22.38760 | 114.12707 | 6520 ft | 273 kts | 117° |
| 2026-05-06 02:53 | 22.37958 | 114.14605 | 6983 ft | 282 kts | 116° |
| 2026-05-06 02:53 | 22.37147 | 114.16567 | 7524 ft | 289 kts | 116° |
| 2026-05-06 02:53 | 22.36330 | 114.18571 | 8128 ft | 294 kts | 116° |
| 2026-05-06 02:53 | 22.35504 | 114.20603 | 8731 ft | 298 kts | 115° |
| 2026-05-06 02:54 | 22.34667 | 114.22668 | 9344 ft | 302 kts | 115° |
| 2026-05-06 02:54 | 22.33820 | 114.24764 | 9922 ft | 307 kts | 115° |
| 2026-05-06 02:54 | 22.32701 | 114.26743 | 10323 ft | 315 kts | 134° |
| 2026-05-06 02:54 | 22.30912 | 114.28137 | 10567 ft | 325 kts | 156° |
| 2026-05-06 02:55 | 22.28814 | 114.29185 | 10783 ft | 339 kts | 159° |
| 2026-05-06 02:55 | 22.26608 | 114.30232 | 11003 ft | 353 kts | 159° |
| 2026-05-06 02:55 | 22.24342 | 114.31373 | 11271 ft | 367 kts | 153° |
| 2026-05-06 02:55 | 22.22178 | 114.32892 | 11667 ft | 374 kts | 146° |
| 2026-05-06 02:56 | 22.20062 | 114.34553 | 12124 ft | 379 kts | 146° |
| 2026-05-06 02:56 | 22.17931 | 114.36245 | 12588 ft | 383 kts | 146° |
| 2026-05-06 02:56 | 22.15777 | 114.37954 | 13070 ft | 386 kts | 146° |
| 2026-05-06 02:56 | 22.13604 | 114.39674 | 13538 ft | 389 kts | 146° |
| 2026-05-06 02:57 | 22.11356 | 114.41314 | 13949 ft | 390 kts | 154° |
| 2026-05-06 02:57 | 22.08826 | 114.42288 | 14327 ft | 386 kts | 174° |
| 2026-05-06 02:57 | 22.06168 | 114.42285 | 14727 ft | 381 kts | 193° |
| 2026-05-06 02:57 | 22.03694 | 114.41340 | 15107 ft | 377 kts | 212° |
| 2026-05-06 02:58 | 22.01538 | 114.39740 | 15527 ft | 377 kts | 218° |
| 2026-05-06 02:58 | 21.99414 | 114.38128 | 15899 ft | 381 kts | 217° |
| 2026-05-06 02:58 | 21.97219 | 114.36501 | 16294 ft | 385 kts | 217° |
| 2026-05-06 02:58 | 21.95000 | 114.34868 | 16747 ft | 388 kts | 217° |
| 2026-05-06 02:59 | 21.92865 | 114.33092 | 17194 ft | 389 kts | 221° |
| 2026-05-06 02:59 | 21.90766 | 114.31243 | 17600 ft | 391 kts | 221° |
| 2026-05-06 02:59 | 21.88646 | 114.29387 | 17974 ft | 394 kts | 221° |
| 2026-05-06 02:59 | 21.86502 | 114.27532 | 18327 ft | 397 kts | 221° |
| 2026-05-06 03:00 | 21.84340 | 114.25677 | 18670 ft | 398 kts | 220° |
| 2026-05-06 03:00 | 21.82164 | 114.23817 | 18984 ft | 401 kts | 220° |
| 2026-05-06 03:00 | 21.79969 | 114.21947 | 19300 ft | 404 kts | 220° |
| 2026-05-06 03:00 | 21.77765 | 114.20072 | 19685 ft | 404 kts | 220° |
| 2026-05-06 03:01 | 21.75550 | 114.18187 | 20016 ft | 407 kts | 220° |
| 2026-05-06 03:01 | 21.73330 | 114.16300 | 20376 ft | 408 kts | 220° |
| 2026-05-06 03:01 | 21.71093 | 114.14400 | 20703 ft | 411 kts | 220° |
| 2026-05-06 03:01 | 21.68845 | 114.12491 | 21047 ft | 413 kts | 220° |
| 2026-05-06 03:02 | 21.66570 | 114.10584 | 21362 ft | 417 kts | 218° |
| 2026-05-06 03:02 | 21.64075 | 114.08974 | 21703 ft | 422 kts | 206° |
| 2026-05-06 03:02 | 21.61284 | 114.07960 | 22071 ft | 427 kts | 197° |
| 2026-05-06 03:02 | 21.58389 | 114.07195 | 22409 ft | 430 kts | 195° |
| 2026-05-06 03:03 | 21.55476 | 114.06458 | 22766 ft | 431 kts | 196° |
| 2026-05-06 03:03 | 21.52549 | 114.05714 | 23121 ft | 433 kts | 196° |
| 2026-05-06 03:03 | 21.49610 | 114.04961 | 23445 ft | 436 kts | 196° |
| 2026-05-06 03:03 | 21.46657 | 114.04192 | 23731 ft | 437 kts | 197° |
| 2026-05-06 03:04 | 21.43783 | 114.03141 | 23989 ft | 436 kts | 207° |
| 2026-05-06 03:04 | 21.41111 | 114.01604 | 24283 ft | 436 kts | 213° |
| 2026-05-06 03:04 | 21.38533 | 113.99882 | 24572 ft | 437 kts | 215° |
| 2026-05-06 03:04 | 21.35994 | 113.98077 | 24901 ft | 439 kts | 216° |
| 2026-05-06 03:05 | 21.33464 | 113.96236 | 25246 ft | 441 kts | 217° |
| 2026-05-06 03:05 | 21.30925 | 113.94389 | 25599 ft | 442 kts | 216° |
| 2026-05-06 03:05 | 21.28363 | 113.92539 | 25938 ft | 444 kts | 216° |
| 2026-05-06 03:05 | 21.25788 | 113.90697 | 26288 ft | 446 kts | 216° |
| 2026-05-06 03:06 | 21.23190 | 113.88851 | 26649 ft | 449 kts | 216° |
| 2026-05-06 03:06 | 21.20579 | 113.87003 | 26985 ft | 451 kts | 216° |
| 2026-05-06 03:06 | 21.17953 | 113.85149 | 27294 ft | 454 kts | 216° |
| 2026-05-06 03:06 | 21.15309 | 113.83286 | 27646 ft | 456 kts | 216° |
| 2026-05-06 03:07 | 21.12722 | 113.81327 | 27973 ft | 456 kts | 221° |
| 2026-05-06 03:07 | 21.10406 | 113.79022 | 28283 ft | 455 kts | 230° |
| 2026-05-06 03:07 | 21.08491 | 113.76391 | 28591 ft | 454 kts | 239° |
| 2026-05-06 03:07 | 21.06997 | 113.73370 | 28912 ft | 454 kts | 249° |
| 2026-05-06 03:08 | 21.05837 | 113.70222 | 29232 ft | 455 kts | 251° |
| 2026-05-06 03:08 | 21.04788 | 113.67069 | 29531 ft | 457 kts | 252° |
| 2026-05-06 03:08 | 21.03766 | 113.63840 | 29802 ft | 459 kts | 252° |
| 2026-05-06 03:08 | 21.02749 | 113.60587 | 30063 ft | 462 kts | 252° |
| 2026-05-06 03:09 | 21.01721 | 113.57323 | 30310 ft | 464 kts | 252° |
| 2026-05-06 03:09 | 21.00681 | 113.54052 | 30592 ft | 465 kts | 252° |
| 2026-05-06 03:09 | 20.99628 | 113.50776 | 30847 ft | 466 kts | 252° |
| 2026-05-06 03:09 | 20.98567 | 113.47493 | 31089 ft | 467 kts | 252° |
| 2026-05-06 03:10 | 20.97499 | 113.44207 | 31332 ft | 469 kts | 252° |
| 2026-05-06 03:10 | 20.96426 | 113.40910 | 31575 ft | 470 kts | 252° |
| 2026-05-06 03:10 | 20.95349 | 113.37605 | 31783 ft | 471 kts | 252° |
| 2026-05-06 03:10 | 20.94266 | 113.34286 | 32004 ft | 473 kts | 252° |
| 2026-05-06 03:11 | 20.93180 | 113.30961 | 32228 ft | 474 kts | 252° |
| 2026-05-06 03:11 | 20.92091 | 113.27630 | 32442 ft | 475 kts | 252° |
| 2026-05-06 03:11 | 20.90999 | 113.24289 | 32656 ft | 476 kts | 252° |
| 2026-05-06 03:11 | 20.89907 | 113.20953 | 32978 ft | 474 kts | 252° |
| 2026-05-06 03:12 | 20.88819 | 113.17628 | 33315 ft | 473 kts | 252° |
| 2026-05-06 03:12 | 20.87734 | 113.14313 | 33614 ft | 471 kts | 252° |
| 2026-05-06 03:12 | 20.86653 | 113.11014 | 33920 ft | 470 kts | 252° |
| 2026-05-06 03:12 | 20.85572 | 113.07719 | 34171 ft | 469 kts | 252° |
| 2026-05-06 03:13 | 20.84856 | 113.05536 | 34326 ft | 469 kts | 252° |
| 2026-05-06 03:13 | 20.83776 | 113.02248 | 34523 ft | 469 kts | 252° |
| 2026-05-06 03:13 | 20.82698 | 112.98960 | 34682 ft | 469 kts | 252° |
| 2026-05-06 03:14 | 20.80526 | 112.92352 | 34955 ft | 471 kts | 252° |
| 2026-05-06 03:14 | 20.79439 | 112.89053 | 35166 ft | 470 kts | 252° |
| 2026-05-06 03:14 | 20.78351 | 112.85755 | 35362 ft | 470 kts | 252° |
| 2026-05-06 03:14 | 20.77265 | 112.82463 | 35563 ft | 469 kts | 252° |
| 2026-05-06 03:15 | 20.76182 | 112.79178 | 35744 ft | 469 kts | 252° |
| 2026-05-06 03:15 | 20.75096 | 112.75889 | 35904 ft | 469 kts | 252° |
| 2026-05-06 03:15 | 20.74008 | 112.72594 | 35959 ft | 472 kts | 252° |
| 2026-05-06 03:16 | 20.71812 | 112.65955 | 35966 ft | 474 kts | 252° |
| 2026-05-06 03:16 | 20.69610 | 112.59306 | 35967 ft | 475 kts | 252° |
| 2026-05-06 03:17 | 20.67405 | 112.52664 | 35968 ft | 474 kts | 252° |
| 2026-05-06 03:17 | 20.65198 | 112.46024 | 35958 ft | 474 kts | 252° |
| 2026-05-06 03:18 | 20.62990 | 112.39385 | 35959 ft | 474 kts | 252° |
| 2026-05-06 03:18 | 20.60779 | 112.32748 | 35960 ft | 475 kts | 252° |
| 2026-05-06 03:19 | 20.58577 | 112.26155 | 35961 ft | 475 kts | 252° |
| 2026-05-06 03:19 | 20.56885 | 112.19379 | 35958 ft | 472 kts | 264° |
| 2026-05-06 03:20 | 20.57878 | 112.09068 | 35957 ft | 470 kts | 290° |
| 2026-05-06 03:20 | 20.60531 | 112.02679 | 35958 ft | 471 kts | 295° |
| 2026-05-06 03:21 | 20.63421 | 111.96395 | 35958 ft | 472 kts | 295° |
| 2026-05-06 03:21 | 20.66314 | 111.90101 | 35963 ft | 472 kts | 295° |
| 2026-05-06 03:22 | 20.69174 | 111.83797 | 35960 ft | 472 kts | 295° |
| 2026-05-06 03:22 | 20.72015 | 111.77488 | 35959 ft | 472 kts | 295° |
| 2026-05-06 03:23 | 20.74851 | 111.71174 | 35960 ft | 472 kts | 295° |
| 2026-05-06 03:23 | 20.77686 | 111.64858 | 35960 ft | 471 kts | 295° |
| 2026-05-06 03:24 | 20.80507 | 111.58536 | 35959 ft | 471 kts | 294° |
| 2026-05-06 03:24 | 20.82381 | 111.51857 | 36011 ft | 470 kts | 278° |
| 2026-05-06 03:25 | 20.82315 | 111.44884 | 36057 ft | 472 kts | 261° |
| 2026-05-06 03:25 | 20.80470 | 111.38127 | 36057 ft | 475 kts | 252° |
| 2026-05-06 03:26 | 20.78212 | 111.31487 | 36070 ft | 475 kts | 251° |
| 2026-05-06 03:26 | 20.75936 | 111.24899 | 36054 ft | 475 kts | 252° |
| 2026-05-06 03:27 | 20.73676 | 111.18260 | 36052 ft | 476 kts | 252° |
| 2026-05-06 03:27 | 20.71434 | 111.11616 | 36056 ft | 476 kts | 252° |
| 2026-05-06 03:28 | 20.69192 | 111.04963 | 36066 ft | 476 kts | 252° |
| 2026-05-06 03:28 | 20.66948 | 110.98315 | 36052 ft | 476 kts | 252° |
| 2026-05-06 03:29 | 20.64697 | 110.91667 | 36051 ft | 476 kts | 252° |
| 2026-05-06 03:29 | 20.62455 | 110.85019 | 36067 ft | 476 kts | 252° |
| 2026-05-06 03:30 | 20.60224 | 110.78365 | 36065 ft | 476 kts | 252° |
| 2026-05-06 03:30 | 20.57988 | 110.71704 | 36052 ft | 477 kts | 252° |
| 2026-05-06 03:31 | 20.55746 | 110.65041 | 36054 ft | 477 kts | 252° |
| 2026-05-06 03:31 | 20.53499 | 110.58382 | 36052 ft | 477 kts | 252° |
| 2026-05-06 03:32 | 20.51155 | 110.51746 | 36060 ft | 480 kts | 247° |
| 2026-05-06 03:32 | 20.47597 | 110.45703 | 36053 ft | 484 kts | 236° |
| 2026-05-06 03:33 | 20.43391 | 110.40060 | 36055 ft | 487 kts | 233° |
| 2026-05-06 03:33 | 20.39080 | 110.34487 | 36051 ft | 487 kts | 233° |
| 2026-05-06 03:34 | 20.34776 | 110.28912 | 36052 ft | 487 kts | 233° |
| 2026-05-06 03:34 | 20.30486 | 110.23319 | 36049 ft | 487 kts | 234° |
| 2026-05-06 03:35 | 20.26232 | 110.17714 | 36037 ft | 487 kts | 234° |
| 2026-05-06 03:35 | 20.22022 | 110.12063 | 36047 ft | 487 kts | 234° |
| 2026-05-06 03:36 | 20.17804 | 110.06408 | 36045 ft | 488 kts | 234° |
| 2026-05-06 03:36 | 20.13567 | 110.00756 | 36045 ft | 489 kts | 234° |
| 2026-05-06 03:37 | 20.09350 | 109.95147 | 36044 ft | 489 kts | 234° |
| 2026-05-06 03:37 | 20.05072 | 109.89466 | 36045 ft | 488 kts | 234° |
| 2026-05-06 03:38 | 20.00854 | 109.83863 | 36041 ft | 488 kts | 234° |
| 2026-05-06 03:38 | 19.96608 | 109.78228 | 36038 ft | 488 kts | 234° |
| 2026-05-06 03:39 | 19.92357 | 109.72596 | 36038 ft | 488 kts | 233° |
| 2026-05-06 03:39 | 19.88102 | 109.66964 | 36039 ft | 489 kts | 233° |
| 2026-05-06 03:40 | 19.83850 | 109.61339 | 36033 ft | 489 kts | 233° |
| 2026-05-06 03:40 | 19.79594 | 109.55714 | 36033 ft | 488 kts | 233° |
| 2026-05-06 03:41 | 19.75336 | 109.50093 | 36030 ft | 488 kts | 233° |
| 2026-05-06 03:41 | 19.71074 | 109.44474 | 36023 ft | 489 kts | 233° |
| 2026-05-06 03:42 | 19.66812 | 109.38859 | 36033 ft | 488 kts | 233° |
| 2026-05-06 03:42 | 19.62586 | 109.33294 | 36027 ft | 487 kts | 233° |
| 2026-05-06 03:43 | 19.58333 | 109.27696 | 36030 ft | 487 kts | 233° |
| 2026-05-06 03:43 | 19.54072 | 109.22097 | 36027 ft | 488 kts | 233° |
| 2026-05-06 03:44 | 19.49803 | 109.16509 | 36027 ft | 488 kts | 233° |
| 2026-05-06 03:44 | 19.45514 | 109.10946 | 36032 ft | 487 kts | 233° |
| 2026-05-06 03:45 | 19.41223 | 109.05392 | 36028 ft | 487 kts | 233° |
| 2026-05-06 03:45 | 19.36934 | 108.99842 | 36030 ft | 487 kts | 233° |
| 2026-05-06 03:46 | 19.32646 | 108.94294 | 36037 ft | 487 kts | 233° |
| 2026-05-06 03:46 | 19.28354 | 108.88743 | 36028 ft | 487 kts | 233° |
| 2026-05-06 03:47 | 19.24064 | 108.83207 | 36030 ft | 487 kts | 233° |
| 2026-05-06 03:47 | 19.19771 | 108.77671 | 36033 ft | 487 kts | 233° |
| 2026-05-06 03:48 | 19.15479 | 108.72128 | 36027 ft | 487 kts | 233° |
| 2026-05-06 03:48 | 19.11186 | 108.66590 | 36030 ft | 487 kts | 233° |
| 2026-05-06 03:49 | 19.06893 | 108.61062 | 36029 ft | 486 kts | 233° |
| 2026-05-06 03:49 | 19.02594 | 108.55533 | 36030 ft | 486 kts | 233° |
| 2026-05-06 03:50 | 18.98295 | 108.50012 | 36032 ft | 486 kts | 233° |
| 2026-05-06 03:50 | 18.93998 | 108.44493 | 36030 ft | 487 kts | 233° |
| 2026-05-06 03:51 | 18.89697 | 108.38977 | 36032 ft | 486 kts | 233° |
| 2026-05-06 03:51 | 18.85424 | 108.33502 | 36029 ft | 486 kts | 232° |
| 2026-05-06 03:52 | 18.81123 | 108.27994 | 36030 ft | 486 kts | 232° |
| 2026-05-06 03:52 | 18.76823 | 108.22488 | 36033 ft | 486 kts | 232° |
| 2026-05-06 03:53 | 18.72518 | 108.16982 | 36036 ft | 486 kts | 232° |
| 2026-05-06 03:53 | 18.68211 | 108.11484 | 36036 ft | 486 kts | 232° |
| 2026-05-06 03:54 | 18.63903 | 108.05988 | 36040 ft | 486 kts | 232° |
| 2026-05-06 03:54 | 18.59597 | 108.00499 | 36030 ft | 486 kts | 232° |
| 2026-05-06 03:55 | 18.55287 | 107.95009 | 36036 ft | 486 kts | 232° |
| 2026-05-06 03:55 | 18.50976 | 107.89524 | 36035 ft | 486 kts | 232° |
| 2026-05-06 03:56 | 18.46665 | 107.84041 | 36038 ft | 486 kts | 232° |
| 2026-05-06 03:56 | 18.42349 | 107.78556 | 36038 ft | 486 kts | 232° |
| 2026-05-06 03:57 | 18.38392 | 107.72821 | 36032 ft | 482 kts | 243° |
| 2026-05-06 03:57 | 18.36115 | 107.66249 | 36033 ft | 477 kts | 261° |
| 2026-05-06 03:58 | 18.35964 | 107.59311 | 36036 ft | 475 kts | 279° |
| 2026-05-06 03:58 | 18.37183 | 107.52474 | 36035 ft | 476 kts | 282° |
| 2026-05-06 03:59 | 18.38595 | 107.45672 | 36032 ft | 476 kts | 283° |
| 2026-05-06 03:59 | 18.39994 | 107.38863 | 36036 ft | 476 kts | 282° |
| 2026-05-06 04:00 | 18.41348 | 107.32087 | 36032 ft | 476 kts | 282° |
| 2026-05-06 04:00 | 18.42703 | 107.25222 | 36033 ft | 476 kts | 282° |
| 2026-05-06 04:01 | 18.44036 | 107.18449 | 36031 ft | 476 kts | 282° |
| 2026-05-06 04:01 | 18.45377 | 107.11626 | 36032 ft | 476 kts | 282° |
| 2026-05-06 04:02 | 18.46715 | 107.04801 | 36025 ft | 476 kts | 282° |
| 2026-05-06 04:02 | 18.47839 | 106.99088 | 36027 ft | 475 kts | 282° |
| 2026-05-06 04:03 | 18.49160 | 106.92321 | 36028 ft | 475 kts | 282° |
| 2026-05-06 04:03 | 18.50491 | 106.85491 | 36021 ft | 475 kts | 282° |
| 2026-05-06 04:04 | 18.51813 | 106.78670 | 36024 ft | 475 kts | 282° |
| 2026-05-06 04:04 | 18.53140 | 106.71846 | 36021 ft | 475 kts | 282° |
| 2026-05-06 04:05 | 18.54465 | 106.65020 | 36018 ft | 475 kts | 282° |
| 2026-05-06 04:05 | 18.55784 | 106.58203 | 36022 ft | 475 kts | 282° |
| 2026-05-06 04:06 | 18.57121 | 106.51389 | 36023 ft | 475 kts | 282° |
| 2026-05-06 04:06 | 18.58458 | 106.44573 | 36019 ft | 475 kts | 282° |
| 2026-05-06 04:07 | 18.59791 | 106.37752 | 36019 ft | 475 kts | 282° |
| 2026-05-06 04:07 | 18.61119 | 106.30933 | 36017 ft | 475 kts | 282° |
| 2026-05-06 04:08 | 18.62445 | 106.24118 | 36016 ft | 475 kts | 282° |
| 2026-05-06 04:08 | 18.63772 | 106.17291 | 36016 ft | 475 kts | 282° |
| 2026-05-06 04:09 | 18.65095 | 106.10461 | 36017 ft | 475 kts | 282° |
| 2026-05-06 04:09 | 18.66410 | 106.03638 | 36016 ft | 475 kts | 282° |
| 2026-05-06 04:10 | 18.67715 | 105.96801 | 36015 ft | 475 kts | 282° |
| 2026-05-06 04:10 | 18.69018 | 105.89966 | 36017 ft | 476 kts | 282° |
| 2026-05-06 04:11 | 18.70323 | 105.83122 | 36014 ft | 476 kts | 282° |
| 2026-05-06 04:11 | 18.71625 | 105.76281 | 36011 ft | 476 kts | 282° |
| 2026-05-06 04:12 | 18.72925 | 105.69439 | 36011 ft | 476 kts | 282° |
| 2026-05-06 04:12 | 18.74810 | 105.62803 | 36010 ft | 475 kts | 289° |
| 2026-05-06 04:13 | 18.77034 | 105.56232 | 36012 ft | 476 kts | 290° |
| 2026-05-06 04:13 | 18.79308 | 105.49672 | 36011 ft | 476 kts | 290° |
| 2026-05-06 04:14 | 18.81572 | 105.43115 | 36016 ft | 476 kts | 290° |
| 2026-05-06 04:14 | 18.83825 | 105.36551 | 36014 ft | 476 kts | 290° |
| 2026-05-06 04:15 | 18.86071 | 105.29980 | 36013 ft | 476 kts | 290° |
| 2026-05-06 04:15 | 18.88312 | 105.23421 | 36014 ft | 475 kts | 290° |
| 2026-05-06 04:16 | 18.90552 | 105.16867 | 36017 ft | 474 kts | 290° |
| 2026-05-06 04:16 | 18.92787 | 105.10320 | 36015 ft | 474 kts | 289° |
| 2026-05-06 04:17 | 18.95021 | 105.03769 | 36022 ft | 474 kts | 289° |
| 2026-05-06 04:17 | 18.97250 | 104.97215 | 36023 ft | 474 kts | 289° |
| 2026-05-06 04:18 | 18.99471 | 104.90669 | 36030 ft | 474 kts | 289° |